Time;durP1;ratioP1;P1;durP2;ratioP2;P2;SDS_P1;SDS_P2;PMS_P1;PMS_P2;Temp;Humidity;BMP_temperature;BMP_pressure;BME280_temperature;BME280_humidity;BME280_pressure;Samples;Min_cycle;Max_cycle;Signal;HPM_P1;HPM_P2
2022/02/12 00:04:37;;;;;;;18.50;10.60;;;;;;;3.83;64.16;100145.69;220504;1280;141481;-58
2022/02/12 00:09:40;;;;;;;17.50;10.40;;;;;;;3.77;64.27;100145.77;220056;1281;139266;-56
2022/02/12 00:14:43;;;;;;;20.30;10.30;;;;;;;3.77;64.41;100149.81;219895;1281;140203;-57
2022/02/12 00:19:50;;;;;;;18.90;10.60;;;;;;;3.86;64.53;100156.86;220568;1278;139276;-55
2022/02/12 00:24:53;;;;;;;19.20;10.30;;;;;;;3.96;64.74;100167.58;220643;1280;139653;-58
2022/02/12 00:29:56;;;;;;;16.90;9.70;;;;;;;4.00;64.31;100173.13;220206;1281;139748;-58
2022/02/12 00:34:59;;;;;;;20.00;11.10;;;;;;;4.03;64.24;100179.22;220360;1280;139288;-57
2022/02/12 00:40:03;;;;;;;16.60;10.70;;;;;;;4.02;64.20;100185.20;220842;1279;140019;-57
2022/02/12 00:45:07;;;;;;;19.00;10.60;;;;;;;4.01;64.51;100195.40;220623;1279;139266;-57
2022/02/12 00:50:11;;;;;;;19.80;10.30;;;;;;;4.01;64.56;100206.46;220139;1281;140240;-56
2022/02/12 00:55:14;;;;;;;17.20;9.80;;;;;;;4.01;64.45;100206.99;220652;1278;139769;-57
2022/02/12 01:00:17;;;;;;;20.10;11.10;;;;;;;3.97;64.66;100204.77;219983;1282;140000;-58
2022/02/12 01:05:20;;;;;;;19.00;11.40;;;;;;;3.96;64.53;100213.23;220806;1279;140788;-53
2022/02/12 01:10:24;;;;;;;24.40;12.70;;;;;;;3.98;64.90;100220.04;220342;1281;139521;-56
2022/02/12 01:15:28;;;;;;;24.80;12.20;;;;;;;3.97;64.75;100220.94;220399;1280;139467;-57
2022/02/12 01:20:31;;;;;;;21.60;13.00;;;;;;;3.96;65.02;100221.83;220485;1280;140589;-59
2022/02/12 01:25:34;;;;;;;14.60;9.00;;;;;;;4.03;65.03;100213.10;220416;1280;139527;-58
2022/02/12 01:30:40;;;;;;;18.20;9.30;;;;;;;4.07;65.06;100212.34;220665;1279;139603;-60
2022/02/12 01:35:43;;;;;;;12.80;8.20;;;;;;;4.07;64.86;100218.50;220712;1280;139667;-57
2022/02/12 01:40:46;;;;;;;15.90;8.00;;;;;;;3.99;64.71;100221.96;220783;1279;139804;-60
2022/02/12 01:45:50;;;;;;;22.40;8.90;;;;;;;3.95;64.60;100230.27;220667;1279;140369;-55
2022/02/12 01:50:54;;;;;;;14.90;7.80;;;;;;;3.98;65.02;100230.73;220386;1281;139893;-52
2022/02/12 01:55:58;;;;;;;15.20;8.10;;;;;;;4.02;64.95;100229.63;220175;1281;139011;-54
2022/02/12 02:01:01;;;;;;;14.30;8.80;;;;;;;4.03;64.84;100233.64;220258;1281;139603;-57
2022/02/12 02:06:05;;;;;;;16.80;9.00;;;;;;;4.01;64.86;100241.23;220209;1280;139029;-53
2022/02/12 02:11:09;;;;;;;17.50;8.40;;;;;;;3.96;64.98;100256.07;220711;1279;139440;-56
2022/02/12 02:16:13;;;;;;;15.20;8.70;;;;;;;3.96;64.78;100268.34;220325;1281;139350;-54
2022/02/12 02:21:17;;;;;;;14.40;8.30;;;;;;;3.95;64.87;100269.77;220665;1279;139199;-50
2022/02/12 02:26:21;;;;;;;14.70;9.00;;;;;;;3.96;64.94;100272.56;220707;1279;139639;-53
2022/02/12 02:31:24;;;;;;;14.80;9.20;;;;;;;3.94;64.99;100281.90;220441;1280;140367;-53
2022/02/12 02:36:28;;;;;;;16.80;9.40;;;;;;;4.00;65.43;100291.46;220582;1278;140340;-57
2022/02/12 02:41:31;;;;;;;16.00;9.50;;;;;;;4.00;65.27;100292.52;220800;1279;138924;-56
2022/02/12 02:46:34;;;;;;;14.50;9.60;;;;;;;3.94;65.43;100306.65;220662;1280;139605;-58
2022/02/12 02:57:00;;;;;;;18.00;10.40;;;;;;;3.90;65.90;100322.70;220890;1280;139192;-58
2022/02/12 03:02:03;;;;;;;16.40;9.80;;;;;;;3.82;65.65;100331.59;220858;1278;139378;-57
2022/02/12 03:07:05;;;;;;;18.60;10.50;;;;;;;3.71;65.97;100342.08;220665;1279;139074;-57
2022/02/12 03:12:09;;;;;;;18.10;9.40;;;;;;;3.71;66.28;100342.61;220643;1279;139912;-57
2022/02/12 03:17:12;;;;;;;12.80;8.60;;;;;;;3.81;66.28;100350.20;220624;1278;139779;-58
2022/02/12 03:22:16;;;;;;;13.70;7.20;;;;;;;3.86;66.04;100361.89;220416;1281;139544;-57
2022/02/12 03:27:19;;;;;;;9.10;6.10;;;;;;;3.86;66.05;100373.13;220600;1280;139447;-56
2022/02/12 03:32:22;;;;;;;10.80;5.70;;;;;;;3.86;65.86;100378.73;220852;1280;138921;-58
2022/02/12 03:37:27;;;;;;;10.90;5.30;;;;;;;3.82;65.53;100386.89;220636;1279;139195;-57
2022/02/12 03:42:30;;;;;;;;;;;;;;;3.80;65.34;100396.89;220393;1281;139075;-58
2022/02/12 03:47:33;;;;;;;7.70;5.00;;;;;;;3.77;65.36;100403.25;220538;1280;126170;-56
2022/02/12 03:52:36;;;;;;;9.10;4.70;;;;;;;3.75;65.02;100409.77;220599;1280;139941;-56
2022/02/12 03:57:40;;;;;;;9.60;4.70;;;;;;;3.76;64.96;100422.77;220838;1278;139278;-55
2022/02/12 04:02:44;;;;;;;8.90;4.80;;;;;;;3.78;64.75;100433.27;220453;1281;140613;-56
2022/02/12 04:07:47;;;;;;;8.20;4.80;;;;;;;3.82;64.88;100440.06;220556;1280;139500;-53
2022/02/12 04:12:53;;;;;;;7.50;4.60;;;;;;;3.84;64.55;100450.59;220515;1280;139769;-56
2022/02/12 04:17:59;;;;;;;7.70;5.40;;;;;;;3.84;64.30;100453.56;220281;1280;139167;-54
2022/02/12 04:23:02;;;;;;;10.40;5.20;;;;;;;3.80;64.19;100459.23;220252;1281;139638;-57
2022/02/12 04:28:07;;;;;;;8.20;5.00;;;;;;;3.73;63.87;100468.95;220608;1280;139912;-54
2022/02/12 04:33:11;;;;;;;7.70;5.50;;;;;;;3.71;64.18;100478.98;220690;1279;140012;-55
2022/02/12 04:38:14;;;;;;;7.50;5.10;;;;;;;3.81;64.40;100488.70;220183;1281;139201;-54
2022/02/12 04:43:18;;;;;;;59.70;37.90;;;;;;;3.76;64.00;100499.98;220605;1280;139644;-55
2022/02/12 04:48:21;;;;;;;12.70;6.90;;;;;;;3.81;63.96;100513.81;219964;1281;192525;-54
2022/02/12 04:53:24;;;;;;;8.60;5.00;;;;;;;3.74;63.65;100513.69;220419;1280;139655;-56
2022/02/12 04:58:27;;;;;;;7.20;4.30;;;;;;;3.61;62.99;100526.64;220552;1279;139553;-56
2022/02/12 05:03:30;;;;;;;9.30;4.50;;;;;;;3.50;62.77;100537.10;220425;1280;139056;-56
2022/02/12 05:08:33;;;;;;;7.20;4.20;;;;;;;3.43;62.78;100545.74;220511;1281;139211;-54
2022/02/12 05:13:36;;;;;;;7.00;4.40;;;;;;;3.34;62.79;100553.72;220644;1280;138824;-55
2022/02/12 05:18:39;;;;;;;452.30;293.80;;;;;;;3.28;62.69;100562.20;220478;1280;139321;-55
2022/02/12 05:23:44;;;;;;;11.80;6.50;;;;;;;3.39;63.26;100560.54;220253;1281;141076;-54
2022/02/12 05:28:47;;;;;;;9.30;5.00;;;;;;;3.47;62.96;100570.82;220366;1280;139639;-57
2022/02/12 05:33:50;;;;;;;9.00;4.50;;;;;;;3.47;62.47;100569.59;220691;1279;139266;-51
2022/02/12 05:38:53;;;;;;;8.10;4.10;;;;;;;3.40;62.24;100577.54;220263;1281;139099;-53
2022/02/12 05:43:56;;;;;;;8.30;4.00;;;;;;;3.25;62.11;100583.45;220579;1279;138831;-55
2022/02/12 05:49:00;;;;;;;7.00;4.10;;;;;;;3.16;62.09;100594.54;220466;1280;139101;-57
2022/02/12 05:54:04;;;;;;;9.10;4.30;;;;;;;3.04;62.30;100600.07;220316;1281;139880;-57
2022/02/12 05:59:12;;;;;;;9.80;3.90;;;;;;;2.92;62.24;100610.47;220614;1280;139220;-57
2022/02/12 06:04:15;;;;;;;7.20;4.30;;;;;;;2.82;62.34;100616.84;220119;1281;139810;-54
2022/02/12 06:09:18;;;;;;;10.50;4.40;;;;;;;2.74;62.26;100623.02;220727;1279;139162;-56
2022/02/12 06:14:21;;;;;;;8.50;4.50;;;;;;;2.71;62.38;100633.02;220407;1281;139662;-58
2022/02/12 06:19:24;;;;;;;8.60;4.20;;;;;;;2.66;62.48;100638.98;220476;1280;138878;-57
2022/02/12 06:24:27;;;;;;;9.70;4.90;;;;;;;2.58;62.39;100651.29;220322;1281;139478;-58
2022/02/12 06:29:32;;;;;;;8.50;4.10;;;;;;;2.53;62.39;100663.05;220618;1280;141915;-57
2022/02/12 06:34:35;;;;;;;10.20;4.40;;;;;;;2.53;62.54;100666.71;220477;1279;139638;-57
2022/02/12 06:39:38;;;;;;;8.90;4.30;;;;;;;2.55;62.60;100673.19;220481;1280;139361;-57
2022/02/12 06:44:42;;;;;;;9.60;4.50;;;;;;;2.59;62.73;100682.83;220612;1280;139451;-55
2022/02/12 06:49:45;;;;;;;9.70;4.80;;;;;;;2.60;62.83;100688.42;220477;1280;139045;-53
2022/02/12 06:54:48;;;;;;;9.50;4.50;;;;;;;2.60;62.51;100699.45;220362;1280;140006;-54
2022/02/12 06:59:51;;;;;;;13.30;4.70;;;;;;;2.58;62.52;100709.10;220563;1278;139156;-56
2022/02/12 07:04:55;;;;;;;8.80;4.40;;;;;;;2.56;62.60;100718.22;220149;1281;139639;-56
2022/02/12 07:09:58;;;;;;;8.80;4.10;;;;;;;2.59;62.76;100724.16;220026;1281;139825;-56
2022/02/12 07:15:01;;;;;;;9.70;4.20;;;;;;;2.63;62.71;100732.56;220806;1279;139134;-56
2022/02/12 07:20:08;;;;;;;11.50;4.40;;;;;;;2.65;62.59;100733.97;220629;1279;139949;-59
2022/02/12 07:25:13;;;;;;;7.20;4.40;;;;;;;2.67;62.79;100742.02;220511;1280;139201;-56
2022/02/12 07:30:16;;;;;;;9.40;4.40;;;;;;;2.73;62.75;100753.91;220255;1280;140668;-56
2022/02/12 07:35:19;;;;;;;12.60;5.20;;;;;;;2.81;62.78;100757.23;220252;1280;139037;-53
2022/02/12 07:40:22;;;;;;;11.90;4.50;;;;;;;2.88;62.79;100754.58;220200;1280;139672;-55
2022/02/12 07:45:25;;;;;;;9.40;4.30;;;;;;;2.93;62.65;100755.80;220498;1280;140503;-57
2022/02/12 07:50:28;;;;;;;8.30;3.80;;;;;;;2.98;62.28;100756.99;220295;1281;138864;-55
2022/02/12 07:55:32;;;;;;;8.10;3.60;;;;;;;3.04;62.26;100760.83;220305;1280;138775;-57
2022/02/12 08:00:36;;;;;;;8.70;3.30;;;;;;;3.10;62.07;100764.32;220638;1280;138884;-57
2022/02/12 08:05:39;;;;;;;7.40;3.20;;;;;;;3.13;61.54;100772.02;220388;1280;140165;-56
2022/02/12 08:16:04;;;;;;;5.80;2.60;;;;;;;3.12;60.63;100798.68;220273;1281;138750;-59
2022/02/12 08:21:07;;;;;;;8.80;2.80;;;;;;;3.14;60.76;100802.71;220539;1280;139275;-57
2022/02/12 08:26:10;;;;;;;7.90;2.80;;;;;;;3.22;60.91;100814.09;220288;1281;138507;-58
2022/02/12 08:31:13;;;;;;;6.20;2.70;;;;;;;3.28;60.65;100821.94;220569;1280;140290;-57
2022/02/12 08:36:16;;;;;;;9.00;2.90;;;;;;;3.40;60.57;100829.80;220011;1281;138730;-57
2022/02/12 08:41:19;;;;;;;7.40;2.80;;;;;;;3.43;60.35;100832.24;220241;1281;140284;-55
2022/02/12 08:46:22;;;;;;;7.60;2.90;;;;;;;3.46;59.94;100850.98;220353;1280;139218;-58
2022/02/12 08:51:26;;;;;;;8.10;3.40;;;;;;;3.44;59.69;100851.91;220584;1279;139297;-57
2022/02/12 08:56:29;;;;;;;8.80;3.10;;;;;;;3.45;59.54;100859.26;220413;1281;139143;-56
2022/02/12 09:01:33;;;;;;;6.60;2.60;;;;;;;3.46;59.50;100861.54;220463;1280;138939;-56
2022/02/12 09:06:37;;;;;;;6.80;2.90;;;;;;;3.52;59.30;100866.60;220375;1280;140302;-56
2022/02/12 09:11:42;;;;;;;6.40;2.90;;;;;;;3.60;59.20;100865.86;220440;1279;139017;-57
2022/02/12 09:16:45;;;;;;;6.90;3.50;;;;;;;3.67;59.16;100866.02;220571;1280;138646;-57
2022/02/12 09:21:48;;;;;;;9.50;3.80;;;;;;;3.73;59.39;100871.77;220455;1280;138841;-57
2022/02/12 09:26:51;;;;;;;6.90;3.60;;;;;;;3.75;58.97;100870.38;220096;1282;139294;-56
2022/02/12 09:31:54;;;;;;;10.90;3.80;;;;;;;3.86;59.07;100875.77;220680;1280;139318;-58
2022/02/12 09:36:57;;;;;;;7.40;3.40;;;;;;;3.95;59.02;100878.33;220474;1279;139005;-57
2022/02/12 09:42:00;;;;;;;8.20;3.30;;;;;;;3.90;58.48;100889.07;220060;1281;138805;-61
2022/02/12 09:47:39;;;;;;;12.40;3.40;;;;;;;3.83;58.20;100896.84;220309;1280;141186;-57
2022/02/12 09:52:46;;;;;;;9.90;3.50;;;;;;;3.86;58.23;100891.37;220613;1280;139291;-57
2022/02/12 09:57:50;;;;;;;8.00;3.20;;;;;;;3.87;58.25;100895.24;220540;1280;139694;-57
2022/02/12 10:02:54;;;;;;;10.50;3.50;;;;;;;3.95;57.94;100886.95;220075;1280;138867;-56
2022/02/12 10:08:00;;;;;;;8.10;3.50;;;;;;;4.10;57.74;100887.23;220627;1279;139170;-53
2022/02/12 10:13:12;;;;;;;;;;;;;;;4.15;57.47;100881.74;220383;1281;141082;-51
2022/02/12 10:18:18;;;;;;;91.20;47.10;;;;;;;4.19;57.42;100884.71;220628;1280;125425;-52
2022/02/12 10:23:24;;;;;;;13.50;7.30;;;;;;;4.39;57.88;100875.60;220653;1280;139715;-52
2022/02/12 10:28:28;;;;;;;6.70;3.90;;;;;;;4.63;57.85;100867.86;220027;1281;139104;-54
2022/02/12 10:33:40;;;;;;;6.60;3.50;;;;;;;4.82;57.11;100869.81;220183;1281;139355;-52
2022/02/12 10:38:46;;;;;;;8.20;3.50;;;;;;;4.96;56.76;100864.58;220364;1281;138820;-56
2022/02/12 10:43:53;;;;;;;11.70;2.90;;;;;;;5.20;56.64;100859.05;220392;1281;140087;-51
2022/02/12 10:48:56;;;;;;;7.50;3.10;;;;;;;5.14;55.62;100862.29;220105;1281;139361;-52
2022/02/12 10:53:59;;;;;;;88.30;40.70;;;;;;;5.17;55.78;100864.36;220561;1280;138847;-55
2022/02/12 10:59:02;;;;;;;8.10;4.30;;;;;;;5.57;55.83;100870.08;220511;1280;139290;-52
2022/02/12 11:04:07;;;;;;;8.00;3.00;;;;;;;5.98;55.68;100864.27;220674;1280;138842;-56
2022/02/12 11:09:10;;;;;;;10.20;3.40;;;;;;;6.39;55.41;100860.17;220024;1281;139779;-55
2022/02/12 11:14:17;;;;;;;8.20;3.10;;;;;;;6.44;54.41;100854.80;220353;1280;138926;-54
2022/02/12 11:19:24;;;;;;;10.50;3.20;;;;;;;6.50;54.30;100848.70;220425;1279;140400;-55
2022/02/12 11:24:35;;;;;;;8.80;3.10;;;;;;;6.64;54.07;100840.20;220611;1279;139011;-52
2022/02/12 11:29:40;;;;;;;6.00;3.00;;;;;;;6.70;53.53;100838.15;220139;1281;140577;-54
2022/02/12 11:35:16;;;;;;;8.60;3.00;;;;;;;6.80;53.71;100840.26;220172;1280;139898;-58
2022/02/12 11:40:24;;;;;;;40.00;20.20;;;;;;;6.89;53.15;100836.40;220513;1280;139519;-55
2022/02/12 11:45:42;;;;;;;44.60;24.30;;;;;;;7.09;53.44;100829.69;220031;1282;139504;-54
2022/02/12 11:50:54;;;;;;;27.70;14.30;;;;;;;8.10;57.80;100819.95;220709;1281;139770;-54
2022/02/12 11:55:57;;;;;;;21.40;8.50;;;;;;;9.56;59.32;100816.14;220974;1279;139108;-53
2022/02/12 12:01:00;;;;;;;7.40;3.50;;;;;;;10.55;56.81;100812.39;220877;1280;139219;-58
2022/02/12 12:06:20;;;;;;;15.30;6.70;;;;;;;10.97;55.33;100808.64;220288;1280;140311;-54
2022/02/12 12:11:23;;;;;;;8.80;3.60;;;;;;;11.32;53.64;100801.50;220526;1280;139207;-51
2022/02/12 12:16:33;;;;;;;11.20;3.10;;;;;;;11.39;52.49;100792.20;220545;1280;139517;-53
2022/02/12 12:21:38;;;;;;;5.30;3.00;;;;;;;11.57;51.96;100787.27;220415;1279;140324;-54
2022/02/12 12:26:42;;;;;;;6.60;2.70;;;;;;;11.75;51.64;100784.23;220451;1281;139883;-54
2022/02/12 12:31:45;;;;;;;5.90;3.00;;;;;;;11.93;50.87;100770.25;220195;1281;139760;-54
2022/02/12 12:36:48;;;;;;;7.40;2.90;;;;;;;12.06;49.83;100769.20;220376;1281;139474;-52
2022/02/12 12:41:54;;;;;;;8.90;3.20;;;;;;;11.43;47.26;100763.98;220410;1281;140278;-51
2022/02/12 12:46:59;;;;;;;10.10;2.80;;;;;;;10.71;46.34;100769.58;220588;1280;139097;-51
2022/02/12 12:52:04;;;;;;;6.00;2.70;;;;;;;10.16;46.07;100762.36;220529;1279;139392;-52
2022/02/12 12:57:09;;;;;;;5.30;2.90;;;;;;;9.66;45.85;100758.26;220968;1280;139689;-54
2022/02/12 13:02:11;;;;;;;5.10;2.70;;;;;;;9.35;46.04;100752.13;221170;1279;139090;-53
2022/02/12 13:07:16;;;;;;;6.40;2.90;;;;;;;9.28;46.24;100747.55;221211;1279;138935;-54
2022/02/12 13:12:30;;;;;;;7.80;2.50;;;;;;;9.18;45.87;100742.16;221165;1279;139103;-53
2022/02/12 13:17:39;;;;;;;6.80;2.50;;;;;;;8.94;45.63;100733.64;221208;1280;139021;-53
2022/02/12 13:22:54;;;;;;;6.70;2.90;;;;;;;8.95;45.97;100724.74;220392;1280;139284;-54
2022/02/12 13:27:59;;;;;;;9.90;3.20;;;;;;;9.09;46.22;100725.97;221196;1280;138926;-55
2022/02/12 13:33:11;;;;;;;6.70;2.60;;;;;;;9.19;45.70;100714.52;220740;1281;139236;-55
2022/02/12 13:38:14;;;;;;;6.50;2.90;;;;;;;9.26;45.37;100719.09;221104;1280;139148;-52
2022/02/12 13:43:20;;;;;;;5.60;2.60;;;;;;;9.33;45.10;100725.79;221168;1279;139827;-53
2022/02/12 13:48:24;;;;;;;5.50;2.90;;;;;;;9.34;44.81;100718.30;221242;1279;139345;-52
2022/02/12 13:53:29;;;;;;;337.80;211.80;;;;;;;9.25;44.66;100722.65;221141;1279;140109;-55
2022/02/12 13:58:32;;;;;;;12.30;6.80;;;;;;;9.20;45.16;100725.98;221195;1279;139878;-53
2022/02/12 14:03:37;;;;;;;7.30;3.40;;;;;;;9.07;44.94;100724.05;220980;1279;140631;-54
2022/02/12 14:08:44;;;;;;;7.30;3.50;;;;;;;8.85;45.05;100720.79;221207;1279;139832;-57
2022/02/12 14:13:47;;;;;;;6.20;2.60;;;;;;;8.69;44.83;100720.17;221205;1279;141515;-55
2022/02/12 14:18:51;;;;;;;5.90;2.60;;;;;;;8.40;44.05;100722.70;221135;1279;139521;-54
2022/02/12 14:23:56;;;;;;;6.60;3.10;;;;;;;8.10;43.80;100718.85;221186;1279;138561;-52
2022/02/12 14:28:59;;;;;;;10.30;3.10;;;;;;;7.82;43.79;100715.81;221190;1279;138497;-54
2022/02/12 14:34:02;;;;;;;7.70;3.00;;;;;;;7.62;43.76;100720.70;221233;1279;139199;-53
2022/02/12 14:39:05;;;;;;;44.40;22.60;;;;;;;7.74;46.01;100711.41;221027;1277;139937;-54
2022/02/12 14:44:08;;;;;;;8.40;3.70;;;;;;;7.93;45.06;100710.95;221221;1279;140585;-50
2022/02/12 14:49:14;;;;;;;6.60;2.80;;;;;;;7.65;43.62;100716.56;220986;1279;138922;-56
2022/02/12 14:54:17;;;;;;;;;;;;;;;7.39;43.33;100712.90;220898;1280;139068;-56
2022/02/12 14:59:20;;;;;;;8.40;2.20;;;;;;;7.19;43.24;100716.51;220790;1280;125599;-56
2022/02/12 15:04:24;;;;;;;6.10;2.40;;;;;;;6.94;42.80;100718.80;221188;1279;138893;-55
2022/02/12 15:09:27;;;;;;;7.40;2.40;;;;;;;6.80;42.90;100709.20;221197;1279;139029;-54
2022/02/12 15:14:31;;;;;;;5.30;2.70;;;;;;;6.76;42.82;100700.81;220796;1280;138516;-56
2022/02/12 15:19:34;;;;;;;6.50;2.50;;;;;;;6.66;42.93;100703.30;221196;1279;139994;-55
2022/02/12 15:24:37;;;;;;;5.10;2.50;;;;;;;6.58;42.75;100693.05;220981;1279;138804;-56
2022/02/12 15:29:40;;;;;;;7.50;2.10;;;;;;;6.47;42.96;100689.55;221167;1278;138868;-53
2022/02/12 15:34:43;;;;;;;8.50;2.70;;;;;;;6.34;42.70;100681.14;221031;1280;140780;-50
2022/02/12 15:39:50;;;;;;;6.70;2.50;;;;;;;6.21;42.47;100675.93;221151;1279;139604;-54
2022/02/12 15:44:54;;;;;;;6.90;2.40;;;;;;;6.06;42.88;100671.42;221227;1279;139693;-53
2022/02/12 15:49:57;;;;;;;6.70;2.60;;;;;;;5.94;43.11;100671.63;221137;1278;138917;-54
2022/02/12 15:55:00;;;;;;;7.40;3.10;;;;;;;5.84;43.58;100664.19;220756;1279;139263;-54
2022/02/12 16:00:04;;;;;;;11.90;3.90;;;;;;;5.72;43.83;100656.64;220855;1278;139500;-55
2022/02/12 16:05:11;;;;;;;65.50;31.30;;;;;;;5.59;44.41;100649.27;220326;1280;139452;-55
2022/02/12 16:10:15;;;;;;;9.90;4.00;;;;;;;5.53;44.32;100652.90;220932;1279;139222;-55
2022/02/12 16:15:18;;;;;;;8.40;3.40;;;;;;;5.44;44.31;100659.35;220835;1279;139632;-52
2022/02/12 16:20:21;;;;;;;14.50;3.60;;;;;;;5.39;44.05;100664.89;221005;1279;138499;-58
2022/02/12 16:25:25;;;;;;;9.80;4.40;;;;;;;5.32;44.25;100649.86;221074;1279;140511;-57
2022/02/12 16:30:29;;;;;;;10.20;4.60;;;;;;;5.26;44.16;100638.88;221013;1279;138987;-56
2022/02/12 16:35:32;;;;;;;12.20;4.00;;;;;;;5.25;44.45;100631.49;221177;1279;140675;-59
2022/02/12 16:40:35;;;;;;;12.10;4.50;;;;;;;5.25;44.95;100611.42;221155;1279;139628;-57
2022/02/12 16:45:41;;;;;;;11.50;4.80;;;;;;;5.18;44.84;100608.55;220272;1279;468537;-56
2022/02/12 16:50:44;;;;;;;13.10;5.10;;;;;;;5.11;44.60;100606.36;221299;1279;140049;-58
2022/02/12 16:55:48;;;;;;;20.80;6.10;;;;;;;5.05;44.83;100611.90;221008;1279;140670;-56
2022/02/12 17:00:51;;;;;;;14.80;5.90;;;;;;;4.97;44.94;100606.04;220717;1279;139382;-53
2022/02/12 17:05:54;;;;;;;20.80;7.10;;;;;;;4.89;44.97;100601.40;220202;1277;140643;-55
2022/02/12 17:10:57;;;;;;;20.80;6.40;;;;;;;4.87;45.31;100600.88;221154;1279;138857;-57
2022/02/12 17:16:00;;;;;;;18.80;6.50;;;;;;;4.80;45.25;100607.84;221076;1280;139358;-57
2022/02/12 17:21:23;;;;;;;18.70;5.90;;;;;;;4.72;44.74;100614.61;221291;1279;139488;-57
2022/02/12 17:26:34;;;;;;;18.10;6.40;;;;;;;4.63;45.16;100618.61;220969;1278;138636;-53
2022/02/12 17:31:37;;;;;;;30.70;7.80;;;;;;;4.54;44.89;100626.10;221121;1277;140013;-53
2022/02/12 17:36:40;;;;;;;16.60;6.70;;;;;;;4.43;45.31;100626.92;221174;1278;138913;-55
2022/02/12 17:41:44;;;;;;;28.30;8.10;;;;;;;4.33;45.63;100624.92;221152;1278;139654;-54
2022/02/12 17:46:48;;;;;;;28.00;9.30;;;;;;;4.24;45.53;100624.33;221055;1279;139319;-57
2022/02/12 17:51:51;;;;;;;20.00;8.90;;;;;;;4.17;45.68;100616.14;221242;1279;140063;-53
2022/02/12 17:56:54;;;;;;;23.20;9.70;;;;;;;4.12;45.85;100609.70;221267;1277;139054;-53
2022/02/12 18:01:57;;;;;;;32.60;11.80;;;;;;;4.18;47.00;100613.67;221054;1279;138891;-56
2022/02/12 18:07:06;;;;;;;142.60;81.50;;;;;;;4.27;47.17;100612.35;220933;1279;139862;-60
2022/02/12 18:12:13;;;;;;;45.60;18.10;;;;;;;4.40;47.47;100614.83;221265;1278;140129;-55
2022/02/12 18:17:16;;;;;;;33.70;11.90;;;;;;;4.39;46.91;100613.62;221176;1278;139433;-55
2022/02/12 18:22:19;;;;;;;28.30;12.00;;;;;;;4.34;46.81;100614.02;221231;1278;139347;-56
2022/02/12 18:27:23;;;;;;;39.00;13.20;;;;;;;4.26;46.64;100604.97;221116;1278;140902;-57
2022/02/12 18:32:26;;;;;;;38.90;13.60;;;;;;;4.18;46.65;100601.73;221210;1279;140831;-55
2022/02/12 18:37:29;;;;;;;38.70;13.60;;;;;;;4.05;46.88;100596.08;221061;1279;139717;-54
2022/02/12 18:42:34;;;;;;;31.20;12.60;;;;;;;3.86;47.02;100594.32;221258;1279;138847;-57
2022/02/12 18:47:37;;;;;;;29.50;11.70;;;;;;;3.67;47.25;100594.67;221251;1278;139421;-53
2022/02/12 18:52:40;;;;;;;21.00;10.30;;;;;;;3.49;47.59;100596.75;221166;1278;139102;-55
2022/02/12 18:57:43;;;;;;;19.20;9.70;;;;;;;3.37;48.09;100594.05;221267;1278;139476;-53
2022/02/12 19:02:46;;;;;;;28.50;13.00;;;;;;;3.25;48.48;100588.88;221375;1278;140871;-56
2022/02/12 19:07:49;;;;;;;25.70;13.30;;;;;;;3.15;48.58;100591.40;220930;1278;139161;-54
2022/02/12 19:12:52;;;;;;;370.10;248.10;;;;;;;3.07;48.95;100589.69;221088;1279;139176;-54
2022/02/12 19:17:55;;;;;;;41.50;22.00;;;;;;;3.16;49.94;100580.86;221135;1279;139476;-52
2022/02/12 19:23:02;;;;;;;27.20;14.10;;;;;;;3.17;49.65;100576.84;221186;1279;139235;-54
2022/02/12 19:28:06;;;;;;;28.50;13.00;;;;;;;3.04;49.54;100576.05;221214;1279;139274;-56
2022/02/12 19:33:09;;;;;;;25.50;13.00;;;;;;;2.89;49.69;100578.95;220995;1279;140860;-57
2022/02/12 19:38:12;;;;;;;28.00;13.80;;;;;;;2.79;49.72;100574.63;221021;1279;139738;-56
2022/02/12 19:43:15;;;;;;;27.60;13.90;;;;;;;2.69;50.03;100570.81;221184;1278;140368;-56
2022/02/12 19:48:18;;;;;;;29.40;14.10;;;;;;;2.55;49.98;100565.11;221240;1279;138909;-57
2022/02/12 19:53:23;;;;;;;26.80;14.40;;;;;;;2.41;50.29;100564.64;221185;1279;139546;-55
2022/02/12 19:58:27;;;;;;;32.20;14.40;;;;;;;2.35;50.42;100558.88;221180;1279;139664;-50
2022/02/12 20:03:30;;;;;;;35.50;16.10;;;;;;;2.30;50.45;100552.41;221221;1279;139333;-54
2022/02/12 20:08:33;;;;;;;32.60;15.20;;;;;;;2.25;50.85;100548.25;221083;1279;139797;-52
2022/02/12 20:13:36;;;;;;;63.30;35.70;;;;;;;2.25;51.50;100547.72;221258;1279;139259;-54
2022/02/12 20:18:43;;;;;;;39.00;19.00;;;;;;;2.43;52.29;100542.56;220619;1279;140188;-58
2022/02/12 20:23:46;;;;;;;41.50;19.70;;;;;;;2.41;51.56;100529.26;220481;1279;139677;-56
2022/02/12 20:28:49;;;;;;;133.60;74.10;;;;;;;2.32;51.60;100524.75;221247;1277;140135;-52
2022/02/12 20:33:52;;;;;;;50.10;22.30;;;;;;;2.36;52.56;100519.65;221194;1278;139151;-55
2022/02/12 20:38:56;;;;;;;43.30;21.20;;;;;;;2.33;52.10;100512.30;221148;1279;138711;-58
2022/02/12 20:43:59;;;;;;;45.60;22.50;;;;;;;2.24;51.92;100514.11;221214;1279;139080;-58
2022/02/12 20:49:02;;;;;;;55.20;22.80;;;;;;;2.20;52.03;100510.09;221177;1280;139794;-58
2022/02/12 20:54:05;;;;;;;56.60;25.00;;;;;;;2.17;51.86;100506.08;221094;1279;138982;-59
2022/02/12 20:59:09;;;;;;;56.30;25.20;;;;;;;2.18;52.02;100498.02;221165;1279;139355;-59
2022/02/12 21:04:12;;;;;;;57.50;26.40;;;;;;;2.18;52.01;100497.86;220993;1278;139090;-58
2022/02/12 21:09:16;;;;;;;59.20;27.70;;;;;;;2.21;51.97;100496.09;221275;1279;139634;-60
2022/02/12 21:14:19;;;;;;;65.30;28.00;;;;;;;2.19;52.12;100491.54;220998;1279;139464;-55
2022/02/12 21:19:22;;;;;;;60.90;28.20;;;;;;;2.16;52.07;100487.17;221063;1279;139190;-58
2022/02/12 21:24:28;;;;;;;62.80;28.50;;;;;;;2.11;52.08;100483.01;221299;1279;139343;-58
2022/02/12 21:29:31;;;;;;;;;;;;;;;2.08;52.23;100472.17;221360;1278;139396;-59
2022/02/12 21:34:34;;;;;;;60.70;28.60;;;;;;;2.05;52.37;100468.15;221377;1278;125373;-59
2022/02/12 21:39:37;;;;;;;61.50;29.40;;;;;;;2.00;52.19;100465.37;221320;1278;138919;-55
2022/02/12 21:44:41;;;;;;;67.60;30.40;;;;;;;1.94;52.22;100466.27;221235;1279;139852;-55
2022/02/12 21:49:43;;;;;;;67.20;31.70;;;;;;;1.89;52.33;100464.70;221266;1278;138769;-55
2022/02/12 21:54:46;;;;;;;67.90;31.40;;;;;;;1.83;52.49;100460.89;221191;1279;139359;-57
2022/02/12 21:59:50;;;;;;;71.90;32.80;;;;;;;1.81;52.62;100456.00;221342;1279;140136;-58
2022/02/12 22:04:53;;;;;;;70.10;32.80;;;;;;;1.81;52.64;100449.52;221364;1279;140142;-59
2022/02/12 22:09:55;;;;;;;67.70;31.70;;;;;;;1.84;52.69;100446.89;221329;1278;138912;-59
2022/02/12 22:14:59;;;;;;;66.10;31.60;;;;;;;1.83;52.50;100440.23;221459;1279;139096;-59
2022/02/12 22:20:02;;;;;;;64.70;32.00;;;;;;;1.83;52.57;100436.38;221103;1280;138976;-58
2022/02/12 22:25:07;;;;;;;73.10;31.90;;;;;;;1.79;52.53;100432.02;221405;1279;139858;-57
2022/02/12 22:30:11;;;;;;;64.20;31.70;;;;;;;1.73;52.67;100431.88;221152;1278;139522;-54
2022/02/12 22:35:14;;;;;;;67.10;32.10;;;;;;;1.63;52.68;100429.28;221392;1278;139370;-57
2022/02/12 22:40:19;;;;;;;67.70;32.00;;;;;;;1.54;52.89;100427.56;221368;1278;139374;-57
2022/02/12 22:45:22;;;;;;;66.80;31.50;;;;;;;1.46;52.91;100424.63;221241;1279;138836;-58
2022/02/12 22:50:25;;;;;;;64.90;31.80;;;;;;;1.43;53.25;100422.01;221112;1279;138912;-58
2022/02/12 22:55:28;;;;;;;67.60;31.10;;;;;;;1.38;53.34;100422.73;221196;1279;139408;-54
2022/02/12 23:00:33;;;;;;;68.80;32.60;;;;;;;1.32;53.55;100417.84;221240;1279;139594;-55
2022/02/12 23:05:36;;;;;;;64.40;33.70;;;;;;;1.26;53.68;100413.99;221348;1279;139144;-54
2022/02/12 23:10:39;;;;;;;66.50;32.20;;;;;;;1.20;53.79;100410.52;221334;1279;138861;-51
2022/02/12 23:15:42;;;;;;;74.70;35.50;;;;;;;1.16;54.08;100410.35;221283;1280;139841;-51